Time;durP1;ratioP1;P1;durP2;ratioP2;P2;SDS_P1;SDS_P2;PMS_P1;PMS_P2;Temp;Humidity;BMP_temperature;BMP_pressure;BME280_temperature;BME280_humidity;BME280_pressure;Samples;Min_cycle;Max_cycle;Signal;HPM_P1;HPM_P2
2023/10/09 00:02:08;;;;;;;8.80;2.80;;;;;;;5.71;100.00;100316.73;105751;1256;72802;-76
2023/10/09 00:04:36;;;;;;;6.40;2.70;;;;;;;5.71;100.00;100318.47;105736;1260;63838;-71
2023/10/09 00:07:07;;;;;;;6.00;2.70;;;;;;;5.71;100.00;100320.39;105740;1255;72656;-72
2023/10/09 00:09:46;;;;;;;6.90;2.70;;;;;;;5.69;100.00;100318.02;105744;1260;61022;-74
2023/10/09 00:12:16;;;;;;;8.00;3.70;;;;;;;5.70;100.00;100317.33;105803;1259;60220;-72
2023/10/09 00:14:48;;;;;;;7.20;3.10;;;;;;;5.70;100.00;100320.77;106172;1253;71446;-71
2023/10/09 00:17:18;;;;;;;8.20;4.00;;;;;;;5.70;100.00;100321.64;106033;1254;62365;-74
2023/10/09 00:19:59;;;;;;;8.60;3.60;;;;;;;5.69;100.00;100329.67;106190;1252;71965;-74
2023/10/09 00:22:26;;;;;;;6.00;3.30;;;;;;;5.69;100.00;100336.80;106104;1255;61166;-74
2023/10/09 00:25:10;;;;;;;9.10;2.60;;;;;;;5.69;100.00;100333.67;106069;1254;60506;-71
2023/10/09 00:27:42;;;;;;;6.20;2.00;;;;;;;5.68;100.00;100345.15;106084;1251;73135;-74
2023/10/09 00:30:17;;;;;;;7.80;2.40;;;;;;;5.67;100.00;100346.05;106129;1257;63800;-73
2023/10/09 00:32:53;;;;;;;4.10;1.70;;;;;;;5.69;100.00;100353.25;106257;1254;72510;-75
2023/10/09 00:35:36;;;;;;;3.50;1.20;;;;;;;5.70;100.00;100357.54;106164;1253;61267;-76
2023/10/09 00:38:20;;;;;;;1.40;1.20;;;;;;;5.72;100.00;100362.46;105954;1257;59717;-76
2023/10/09 00:40:56;;;;;;;1.00;0.50;;;;;;;5.76;100.00;100365.96;106075;1254;72155;-74
2023/10/09 00:43:29;;;;;;;4.20;1.40;;;;;;;5.79;100.00;100373.63;106034;1256;62991;-75
2023/10/09 00:46:02;;;;;;;3.20;0.80;;;;;;;5.81;100.00;100380.45;106090;1254;72715;-75
2023/10/09 00:48:37;;;;;;;4.10;0.90;;;;;;;5.84;100.00;100379.98;106138;1252;59873;-73
2023/10/09 00:51:18;;;;;;;;;;;;;;;5.85;100.00;100382.55;105993;1251;60204;-75
2023/10/09 00:53:50;;;;;;;0.70;0.50;;;;;;;5.83;100.00;100385.41;106151;1255;71705;-75
2023/10/09 00:59:08;;;;;;;3.30;0.60;;;;;;;5.82;100.00;100390.66;106098;1253;72545;-74
2023/10/09 01:01:38;;;;;;;1.10;0.60;;;;;;;5.84;100.00;100398.58;106187;1254;61204;-74
2023/10/09 01:04:17;;;;;;;2.30;0.70;;;;;;;5.84;100.00;100401.53;106026;1254;60233;-74
2023/10/09 01:06:47;;;;;;;1.70;0.70;;;;;;;5.81;100.00;100405.11;106131;1254;73020;-73
2023/10/09 01:09:23;;;;;;;1.80;0.90;;;;;;;5.79;100.00;100410.73;105997;1254;63955;-75
2023/10/09 01:14:21;;;;;;;0.90;0.70;;;;;;;5.81;100.00;100417.59;106138;1254;61028;-75
2023/10/09 01:16:48;;;;;;;3.30;1.30;;;;;;;5.81;100.00;100419.48;106152;1251;60368;-73
2023/10/09 01:19:24;;;;;;;1.70;0.90;;;;;;;5.82;100.00;100426.56;106101;1254;72790;-73
2023/10/09 01:21:51;;;;;;;4.00;0.70;;;;;;;5.84;100.00;100426.52;106098;1254;62674;-75
2023/10/09 01:24:19;;;;;;;3.00;0.60;;;;;;;5.84;100.00;100428.58;106157;1255;72645;-73
2023/10/09 01:26:47;;;;;;;4.20;0.40;;;;;;;5.81;100.00;100429.55;105930;1254;61330;-75
2023/10/09 01:29:19;;;;;;;3.40;1.00;;;;;;;5.79;100.00;100432.25;106061;1252;60241;-74
2023/10/09 01:31:56;;;;;;;3.00;0.40;;;;;;;5.73;100.00;100430.07;106002;1250;71886;-72
2023/10/09 01:34:42;;;;;;;3.20;0.50;;;;;;;5.68;100.00;100432.73;106126;1254;63932;-74
2023/10/09 01:37:22;;;;;;;0.60;0.50;;;;;;;5.63;100.00;100431.74;106047;1253;72697;-76
2023/10/09 01:39:50;;;;;;;3.60;0.30;;;;;;;5.59;100.00;100435.69;106125;1254;61157;-72
2023/10/09 01:44:58;;;;;;;3.00;0.40;;;;;;;5.54;100.00;100437.64;106148;1253;73034;-73
2023/10/09 01:47:31;;;;;;;1.00;0.30;;;;;;;5.54;100.00;100440.60;106001;1254;63989;-73
2023/10/09 01:49:58;;;;;;;1.70;0.30;;;;;;;5.54;100.00;100435.42;106068;1262;72629;-73
2023/10/09 01:52:25;;;;;;;1.60;0.50;;;;;;;5.53;100.00;100436.46;106082;1262;61101;-75
2023/10/09 01:54:53;;;;;;;0.80;0.40;;;;;;;5.53;100.00;100435.79;105951;1251;60112;-73
2023/10/09 01:57:23;;;;;;;0.80;0.40;;;;;;;5.51;100.00;100437.41;105926;1251;72480;-73
2023/10/09 01:59:53;;;;;;;2.10;0.40;;;;;;;5.50;100.00;100437.13;105954;1254;63930;-74
2023/10/09 02:02:26;;;;;;;1.10;0.90;;;;;;;5.50;100.00;100439.91;105920;1254;72643;-73
2023/10/09 02:04:54;;;;;;;3.70;1.20;;;;;;;5.50;100.00;100441.64;106084;1252;59846;-73
2023/10/09 02:07:29;;;;;;;0.70;0.70;;;;;;;5.49;100.00;100439.95;106085;1251;60309;-74
2023/10/09 02:09:56;;;;;;;0.90;0.70;;;;;;;5.48;100.00;100441.55;105993;1251;72947;-74
2023/10/09 02:12:23;;;;;;;2.40;0.70;;;;;;;5.47;100.00;100446.44;106111;1254;62349;-76
2023/10/09 02:14:55;;;;;;;3.00;0.90;;;;;;;5.49;100.00;100450.52;106002;1254;72463;-74
2023/10/09 02:17:28;;;;;;;0.60;0.60;;;;;;;5.52;100.00;100452.83;106042;1253;61091;-74
2023/10/09 02:19:59;;;;;;;0.90;0.90;;;;;;;5.55;100.00;100455.46;105992;1254;60326;-74
2023/10/09 02:22:26;;;;;;;1.70;0.60;;;;;;;5.59;100.00;100459.82;105977;1251;74238;-74
2023/10/09 02:24:59;;;;;;;0.90;0.60;;;;;;;5.63;100.00;100458.60;106018;1254;62878;-76
2023/10/09 02:30:27;;;;;;;0.40;0.40;;;;;;;5.75;100.00;100462.96;105980;1254;61252;-75
2023/10/09 02:33:06;;;;;;;7.50;4.30;;;;;;;5.80;100.00;100466.39;106127;1251;60209;-73
2023/10/09 02:35:42;;;;;;;2.30;0.80;;;;;;;5.83;100.00;100470.42;106077;1251;72817;-73
2023/10/09 02:38:14;;;;;;;1.20;0.70;;;;;;;5.87;100.00;100468.51;106072;1253;62412;-77
2023/10/09 02:41:20;;;;;;;1.20;0.50;;;;;;;5.90;100.00;100471.86;106047;1253;72635;-75
2023/10/09 02:43:34;;;;;;;0.80;0.80;;;;;;;5.92;100.00;100471.25;106044;1253;61149;-74
2023/10/09 02:46:15;;;;;;;1.50;0.90;;;;;;;5.94;100.00;100471.87;106088;1252;60247;-74
2023/10/09 02:48:45;;;;;;;0.60;0.60;;;;;;;5.96;100.00;100483.42;106062;1252;73052;-74
2023/10/09 02:51:17;;;;;;;2.80;1.10;;;;;;;5.99;100.00;100481.56;106167;1251;62565;-73
2023/10/09 02:53:44;;;;;;;1.50;1.20;;;;;;;6.01;100.00;100486.49;106063;1251;72580;-73
2023/10/09 02:56:17;;;;;;;2.90;1.20;;;;;;;6.05;100.00;100496.76;106003;1254;61165;-72
2023/10/09 02:58:44;;;;;;;3.00;1.10;;;;;;;6.08;100.00;100498.34;106031;1252;60321;-71
2023/10/09 03:01:14;;;;;;;4.30;1.20;;;;;;;6.10;100.00;100497.42;106094;1254;72876;-74
2023/10/09 03:03:46;;;;;;;4.30;1.70;;;;;;;6.12;100.00;100495.92;105963;1254;63737;-73
2023/10/09 03:06:19;;;;;;;6.00;1.50;;;;;;;6.15;100.00;100497.54;106131;1253;72628;-73
2023/10/09 03:08:47;;;;;;;1.90;1.10;;;;;;;6.17;100.00;100496.75;106103;1254;61167;-73
2023/10/09 03:11:14;;;;;;;5.70;1.40;;;;;;;6.20;100.00;100497.66;106147;1251;60267;-74
2023/10/09 03:13:44;;;;;;;1.80;0.90;;;;;;;6.22;100.00;100497.59;106122;1253;73090;-73
2023/10/09 03:16:18;;;;;;;5.90;1.40;;;;;;;6.23;100.00;100492.13;106137;1253;63917;-73
2023/10/09 03:18:55;;;;;;;1.70;1.30;;;;;;;6.25;100.00;100503.17;106095;1251;71445;-73
2023/10/09 03:21:22;;;;;;;3.90;2.00;;;;;;;6.25;100.00;100506.13;106134;1251;61337;-73
2023/10/09 03:23:49;;;;;;;6.20;2.30;;;;;;;6.24;100.00;100510.84;106229;1251;60475;-74
2023/10/09 03:26:20;;;;;;;6.50;2.10;;;;;;;6.25;100.00;100520.72;106159;1253;73777;-74
2023/10/09 03:28:49;;;;;;;6.20;2.20;;;;;;;6.23;100.00;100527.89;106380;1253;63791;-73
2023/10/09 03:31:16;;;;;;;3.60;2.50;;;;;;;6.20;100.00;100526.45;106191;1254;72673;-74
2023/10/09 03:33:42;;;;;;;3.70;2.00;;;;;;;6.19;100.00;100527.54;106098;1252;60436;-75
2023/10/09 03:36:09;;;;;;;4.40;2.60;;;;;;;6.16;100.00;100525.43;106120;1251;60450;-73
2023/10/09 03:38:38;;;;;;;3.10;2.10;;;;;;;6.14;100.00;100526.92;106141;1254;73826;-77
2023/10/09 03:41:05;;;;;;;4.40;1.70;;;;;;;6.10;100.00;100522.91;106188;1251;62315;-76
2023/10/09 03:43:38;;;;;;;3.50;1.90;;;;;;;6.05;100.00;100523.48;106163;1251;71540;-75
2023/10/09 03:46:14;;;;;;;3.80;1.10;;;;;;;5.99;100.00;100535.19;106115;1251;60808;-76
2023/10/09 03:48:46;;;;;;;5.20;3.00;;;;;;;5.93;100.00;100537.84;106298;1251;60535;-77
2023/10/09 03:51:21;;;;;;;2.80;2.10;;;;;;;5.86;100.00;100539.85;106287;1251;73806;-72
2023/10/09 03:53:48;;;;;;;3.30;1.60;;;;;;;5.81;100.00;100543.17;106889;1253;62757;-73
2023/10/09 03:56:18;;;;;;;2.00;1.20;;;;;;;5.77;100.00;100547.52;106693;1250;71078;-71
2023/10/09 03:58:46;;;;;;;2.10;1.40;;;;;;;5.74;100.00;100554.77;107356;1253;60948;-72
2023/10/09 04:01:28;;;;;;;3.10;1.40;;;;;;;5.70;100.00;100557.34;107600;1249;60500;-72
2023/10/09 04:03:59;;;;;;;5.40;2.30;;;;;;;5.70;100.00;100558.05;107679;1251;72342;-75
2023/10/09 04:06:32;;;;;;;4.40;2.10;;;;;;;5.72;100.00;100564.91;107051;1253;63841;-78
2023/10/09 04:09:14;;;;;;;5.90;2.50;;;;;;;5.73;100.00;100569.52;106827;1251;71623;-74
2023/10/09 04:11:46;;;;;;;4.40;2.80;;;;;;;5.75;100.00;100573.96;106761;1253;60871;-75
2023/10/09 04:14:26;;;;;;;3.90;2.40;;;;;;;5.76;100.00;100568.73;106652;1253;60409;-75
2023/10/09 04:17:30;;;;;;;4.80;2.10;;;;;;;5.77;100.00;100573.20;106496;1249;73777;-73
2023/10/09 04:19:48;;;;;;;6.80;2.70;;;;;;;5.77;100.00;100575.28;106443;1254;62666;-73
2023/10/09 04:22:38;;;;;;;3.90;2.40;;;;;;;5.75;100.00;100580.93;106134;1251;72646;-74
2023/10/09 04:25:07;;;;;;;8.90;3.30;;;;;;;5.70;100.00;100587.20;106331;1254;60529;-73
2023/10/09 04:27:37;;;;;;;5.90;3.60;;;;;;;5.67;100.00;100594.09;106466;1251;60405;-73
2023/10/09 04:30:15;;;;;;;4.90;2.60;;;;;;;5.65;100.00;100600.74;106131;1252;73790;-75
2023/10/09 04:32:45;;;;;;;3.10;1.70;;;;;;;5.63;100.00;100602.02;105974;1254;64224;-76
2023/10/09 04:35:23;;;;;;;5.70;1.60;;;;;;;5.66;100.00;100606.59;106081;1253;70439;-76
2023/10/09 04:38:03;;;;;;;2.40;1.10;;;;;;;5.72;100.00;100608.96;106087;1254;61181;-74
2023/10/09 04:40:51;;;;;;;2.10;0.70;;;;;;;5.78;100.00;100615.64;106128;1251;60481;-73
2023/10/09 04:43:26;;;;;;;0.90;0.70;;;;;;;5.85;100.00;100621.98;106102;1251;74023;-77
2023/10/09 04:46:12;;;;;;;1.80;0.30;;;;;;;5.89;100.00;100622.30;106143;1253;63934;-75
2023/10/09 04:48:45;;;;;;;1.10;0.80;;;;;;;5.95;100.00;100623.13;105950;1254;70581;-76
2023/10/09 04:51:21;;;;;;;1.70;0.30;;;;;;;5.99;100.00;100622.27;106069;1250;61277;-77
2023/10/09 04:53:59;;;;;;;0.60;0.60;;;;;;;6.04;100.00;100621.41;106130;1251;60904;-75
2023/10/09 04:56:31;;;;;;;0.40;0.40;;;;;;;6.08;100.00;100625.21;106064;1250;73873;-75
2023/10/09 04:59:03;;;;;;;0.50;0.30;;;;;;;6.11;100.00;100623.20;106078;1253;62947;-76
2023/10/09 05:01:36;;;;;;;0.40;0.20;;;;;;;6.11;100.00;100625.79;106065;1253;72721;-75
2023/10/09 05:04:25;;;;;;;0.40;0.20;;;;;;;6.13;100.00;100632.49;106115;1254;60555;-75
2023/10/09 05:06:57;;;;;;;2.20;0.50;;;;;;;6.16;100.00;100632.36;106116;1253;60341;-74
2023/10/09 05:09:25;;;;;;;1.10;0.10;;;;;;;6.18;100.00;100632.25;106038;1254;73731;-77
2023/10/09 05:14:26;;;;;;;1.60;0.30;;;;;;;6.22;100.00;100633.33;106100;1254;72578;-74
2023/10/09 05:16:54;;;;;;;0.20;0.20;;;;;;;6.26;100.00;100640.80;106167;1253;61036;-74
2023/10/09 05:22:29;;;;;;;0.30;0.20;;;;;;;6.33;100.00;100655.27;106061;1251;72696;-75
2023/10/09 05:25:00;;;;;;;0.90;0.20;;;;;;;6.36;100.00;100660.88;106123;1253;63801;-74
2023/10/09 05:27:50;;;;;;;0.20;0.20;;;;;;;6.40;100.00;100665.04;106031;1251;73416;-74
2023/10/09 05:30:26;;;;;;;4.50;0.30;;;;;;;6.43;100.00;100666.83;106156;1251;61050;-74
2023/10/09 05:33:27;;;;;;;1.90;0.40;;;;;;;6.45;100.00;100667.80;106135;1253;60303;-73
2023/10/09 05:36:05;;;;;;;0.40;0.30;;;;;;;6.46;100.00;100666.53;106055;1254;73865;-75
2023/10/09 05:38:35;;;;;;;0.80;0.20;;;;;;;6.47;100.00;100676.37;106074;1253;63544;-74
2023/10/09 05:41:31;;;;;;;1.70;0.20;;;;;;;6.49;100.00;100674.59;106104;1253;72638;-77
2023/10/09 05:46:49;;;;;;;0.60;0.30;;;;;;;6.57;100.00;100679.79;106038;1250;60427;-75
2023/10/09 05:49:24;;;;;;;1.70;0.40;;;;;;;6.63;100.00;100683.33;106179;1250;74017;-75
2023/10/09 05:52:27;;;;;;;4.90;2.20;;;;;;;6.70;100.00;100683.21;106164;1253;63916;-73
2023/10/09 06:08:38;;;;;;;3.60;1.40;;;;;;;7.04;100.00;100703.09;106062;1250;72464;-73
2023/10/09 06:14:04;;;;;;;3.10;0.70;;;;;;;7.09;100.00;100708.81;106068;1249;60568;-76
2023/10/09 06:24:22;;;;;;;3.20;1.10;;;;;;;7.26;100.00;100711.54;106079;1253;61060;-75
2023/10/09 06:29:37;;;;;;;4.40;1.60;;;;;;;7.41;100.00;100715.58;106091;1253;73884;-75
2023/10/09 06:32:57;;;;;;;5.80;2.70;;;;;;;7.48;100.00;100723.08;106111;1253;63912;-75
2023/10/09 06:35:15;;;;;;;8.10;4.00;;;;;;;7.55;100.00;100724.16;105934;1251;72480;-75
2023/10/09 06:45:58;;;;;;;3.70;1.70;;;;;;;7.71;100.00;100728.96;106096;1251;62609;-74
2023/10/09 06:59:04;;;;;;;3.30;1.50;;;;;;;7.92;100.00;100745.45;106205;1254;63751;-75
2023/10/09 07:01:44;;;;;;;;;;;;;;;7.91;100.00;100749.30;106200;1253;72678;-74
2023/10/09 07:04:45;;;;;;;1.70;0.40;;;;;;;7.94;100.00;100749.48;106115;1254;60536;-75
2023/10/09 07:07:12;;;;;;;0.60;0.50;;;;;;;7.98;100.00;100746.02;106133;1254;60431;-75
2023/10/09 07:09:43;;;;;;;0.70;0.20;;;;;;;8.03;99.71;100748.21;106173;1251;73679;-73
2023/10/09 07:12:20;;;;;;;0.70;0.40;;;;;;;8.20;97.97;100745.48;106102;1251;62449;-76
2023/10/09 07:17:16;;;;;;;1.80;0.20;;;;;;;8.76;89.32;100754.08;106560;1251;60419;-74
2023/10/09 07:22:23;;;;;;;2.40;0.30;;;;;;;9.03;88.10;100755.34;106772;1251;73975;-74
2023/10/09 07:27:45;;;;;;;0.40;0.40;;;;;;;10.42;79.12;100764.60;106151;1252;72520;-76
2023/10/09 07:33:16;;;;;;;0.90;0.50;;;;;;;12.12;55.69;100769.23;106189;1253;60539;-77
2023/10/09 07:38:19;;;;;;;1.10;0.20;;;;;;;13.41;51.30;100778.78;106154;1253;63920;-78
2023/10/09 07:40:59;;;;;;;0.30;0.30;;;;;;;14.18;49.28;100776.48;106181;1251;72690;-79
2023/10/09 07:46:32;;;;;;;2.40;0.20;;;;;;;14.66;43.57;100773.23;106046;1251;61218;-74
2023/10/09 07:49:24;;;;;;;1.20;0.40;;;;;;;14.63;43.30;100773.04;106175;1249;73867;-78
2023/10/09 07:51:55;;;;;;;3.60;0.30;;;;;;;14.98;42.78;100768.31;106081;1254;63838;-78
2023/10/09 07:54:32;;;;;;;0.60;0.60;;;;;;;15.49;42.01;100768.23;106136;1253;72632;-78
2023/10/09 07:57:15;;;;;;;1.00;0.40;;;;;;;15.71;40.20;100768.98;106064;1251;60504;-78
2023/10/09 07:59:54;;;;;;;0.50;0.40;;;;;;;15.52;39.11;100777.38;106135;1252;60565;-75
2023/10/09 08:02:31;;;;;;;0.70;0.40;;;;;;;15.13;39.89;100781.59;106149;1250;73912;-75
2023/10/09 08:07:57;;;;;;;1.10;0.40;;;;;;;14.44;39.30;100781.30;106124;1251;72665;-76
2023/10/09 08:16:20;;;;;;;2.30;0.40;;;;;;;14.37;40.75;100784.60;106068;1252;73666;-77
2023/10/09 08:18:51;;;;;;;0.70;0.60;;;;;;;14.43;40.51;100791.54;106069;1250;64006;-78
2023/10/09 08:21:41;;;;;;;0.40;0.30;;;;;;;14.19;40.41;100792.59;106156;1254;72577;-78
2023/10/09 08:24:35;;;;;;;1.00;0.20;;;;;;;13.86;41.73;100800.07;106040;1253;60457;-75
2023/10/09 08:27:46;;;;;;;1.10;0.50;;;;;;;13.37;41.51;100806.41;106162;1249;60533;-77
2023/10/09 08:29:46;;;;;;;0.70;0.20;;;;;;;12.96;42.28;100813.79;106063;1253;73911;-75
2023/10/09 08:32:38;;;;;;;0.60;0.30;;;;;;;13.08;42.71;100813.31;106089;1253;63828;-76
2023/10/09 08:35:26;;;;;;;0.80;0.50;;;;;;;13.74;42.51;100808.65;106011;1253;72568;-76
2023/10/09 08:37:53;;;;;;;1.30;0.50;;;;;;;14.61;41.26;100808.34;106067;1251;60532;-77
2023/10/09 08:40:20;;;;;;;0.90;0.40;;;;;;;15.40;40.04;100806.60;106096;1253;60357;-77
2023/10/09 08:42:52;;;;;;;0.60;0.60;;;;;;;16.21;38.94;100802.05;106163;1250;73833;-76
2023/10/09 08:45:24;;;;;;;3.10;0.70;;;;;;;16.82;36.88;100809.20;106083;1254;64076;-76
2023/10/09 08:47:53;;;;;;;0.80;0.50;;;;;;;16.92;36.51;100808.06;106162;1251;72791;-72
2023/10/09 08:50:21;;;;;;;1.20;0.80;;;;;;;16.72;36.39;100810.77;106172;1254;60411;-73
2023/10/09 08:52:48;;;;;;;1.20;0.50;;;;;;;16.37;36.78;100815.60;106141;1250;60504;-74
2023/10/09 08:55:17;;;;;;;0.40;0.30;;;;;;;16.03;37.33;100816.42;106020;1251;73823;-74
2023/10/09 08:57:47;;;;;;;1.80;0.70;;;;;;;15.63;37.60;100820.96;106045;1254;63863;-73
2023/10/09 09:00:21;;;;;;;1.10;0.40;;;;;;;15.15;38.01;100827.42;106136;1253;72531;-73
2023/10/09 09:02:49;;;;;;;0.40;0.40;;;;;;;14.62;39.13;100831.88;106155;1253;60400;-75
2023/10/09 09:05:21;;;;;;;1.10;0.60;;;;;;;14.23;39.67;100836.13;106204;1251;60427;-74
2023/10/09 09:07:48;;;;;;;0.90;0.40;;;;;;;14.10;40.51;100835.79;106099;1251;73752;-74
2023/10/09 09:10:17;;;;;;;0.90;0.40;;;;;;;14.03;40.89;100840.83;106220;1254;63880;-75
2023/10/09 09:12:46;;;;;;;1.70;0.40;;;;;;;13.99;41.07;100838.30;106085;1251;72447;-75
2023/10/09 09:15:20;;;;;;;0.60;0.30;;;;;;;13.90;40.18;100839.52;106161;1254;60465;-75
2023/10/09 09:17:49;;;;;;;1.90;0.90;;;;;;;13.68;40.91;100835.36;106120;1251;60456;-75
2023/10/09 09:20:24;;;;;;;4.60;0.60;;;;;;;13.78;41.49;100832.77;106177;1252;74246;-77
2023/10/09 09:22:56;;;;;;;2.80;0.70;;;;;;;13.93;41.67;100826.98;106145;1251;62515;-75
2023/10/09 11:20:26;;;;;;;1.40;0.70;;;;;;;10.52;52.95;100885.72;102725;1292;600803;-79
2023/10/09 11:25:52;;;;;;;2.20;0.50;;;;;;;10.50;51.64;100890.55;104835;1270;59216;-77
2023/10/09 11:31:11;;;;;;;2.30;0.50;;;;;;;10.45;52.70;100891.70;104794;1266;63601;-76
2023/10/09 11:33:48;;;;;;;0.60;0.30;;;;;;;10.47;53.00;100894.05;104760;1266;209213;-76
2023/10/09 11:36:31;;;;;;;0.80;0.50;;;;;;;10.51;53.69;100893.65;105079;1268;60515;-75
2023/10/09 11:39:18;;;;;;;1.70;1.00;;;;;;;10.56;54.05;100896.65;105473;1257;62662;-76
2023/10/09 11:54:35;;;;;;;1.50;1.00;;;;;;;10.32;52.46;100906.19;104843;1265;60110;-76
2023/10/09 11:57:03;;;;;;;1.70;0.90;;;;;;;10.36;55.26;100906.67;104750;1266;75664;-74
2023/10/09 11:59:37;;;;;;;1.00;0.60;;;;;;;10.41;53.38;100906.92;104875;1270;62704;-78
2023/10/09 12:02:11;;;;;;;0.80;0.60;;;;;;;10.43;53.49;100900.73;104834;1270;72479;-75
2023/10/09 12:04:42;;;;;;;2.20;1.00;;;;;;;10.44;53.52;100900.70;104849;1266;59747;-76
2023/10/09 12:07:16;;;;;;;2.20;1.30;;;;;;;10.42;54.17;100901.62;104886;1269;59658;-76
2023/10/09 12:09:43;;;;;;;5.70;1.80;;;;;;;10.40;56.23;100902.46;104778;1266;73060;-76
2023/10/09 12:12:11;;;;;;;4.00;2.60;;;;;;;10.34;58.77;100904.88;104799;1265;62532;-78
2023/10/09 12:14:39;;;;;;;5.50;2.50;;;;;;;10.26;61.49;100911.20;104719;1267;73199;-77
2023/10/09 12:17:07;;;;;;;3.00;1.60;;;;;;;10.23;65.54;100909.81;104903;1265;59770;-76
2023/10/09 12:19:36;;;;;;;4.30;1.60;;;;;;;10.21;67.85;100912.36;104892;1267;59668;-76
2023/10/09 12:22:06;;;;;;;2.20;1.50;;;;;;;10.21;69.02;100913.77;104882;1265;73801;-75
2023/10/09 12:24:34;;;;;;;3.00;1.60;;;;;;;10.22;69.67;100907.77;104912;1265;62948;-76
2023/10/09 12:27:09;;;;;;;3.20;1.50;;;;;;;10.24;72.16;100909.60;104870;1269;72753;-77
2023/10/09 12:29:37;;;;;;;1.90;1.40;;;;;;;10.26;73.07;100909.98;104807;1266;59663;-75
2023/10/09 12:32:10;;;;;;;2.10;1.70;;;;;;;10.27;74.02;100915.16;104772;1271;59940;-76
2023/10/09 12:34:42;;;;;;;1.70;1.00;;;;;;;10.26;74.10;100916.64;104856;1265;72622;-77
2023/10/09 12:37:10;;;;;;;1.20;1.10;;;;;;;10.21;74.26;100917.41;104929;1270;64158;-77
2023/10/09 12:39:40;;;;;;;1.90;0.80;;;;;;;10.18;74.69;100916.55;104899;1266;73478;-76
2023/10/09 12:42:08;;;;;;;1.60;1.00;;;;;;;10.14;74.55;100913.27;104839;1270;59802;-75
2023/10/09 12:44:38;;;;;;;0.90;0.70;;;;;;;10.10;70.34;100912.09;104886;1268;59576;-76
2023/10/09 12:47:07;;;;;;;1.20;0.70;;;;;;;10.06;68.73;100910.22;104856;1265;72487;-76
2023/10/09 12:49:38;;;;;;;1.40;0.60;;;;;;;10.02;68.18;100909.38;104790;1267;63806;-74
2023/10/09 12:52:15;;;;;;;1.00;0.80;;;;;;;9.96;69.48;100911.57;104768;1267;73531;-76
2023/10/09 12:54:43;;;;;;;2.30;0.80;;;;;;;9.95;70.14;100909.71;104846;1270;60191;-77
2023/10/09 12:57:13;;;;;;;2.50;1.30;;;;;;;9.92;69.59;100909.33;104797;1265;60300;-75
2023/10/09 12:59:48;;;;;;;2.00;1.00;;;;;;;9.89;68.33;100905.48;104844;1267;71871;-76
2023/10/09 13:02:28;;;;;;;5.40;1.60;;;;;;;9.86;66.84;100902.66;104802;1270;64456;-78
2023/10/09 13:05:00;;;;;;;2.30;1.40;;;;;;;9.86;66.74;100902.70;104744;1270;72841;-77
2023/10/09 13:07:28;;;;;;;3.20;1.40;;;;;;;9.87;67.55;100903.16;104795;1270;59712;-76
2023/10/09 13:10:08;;;;;;;3.40;1.90;;;;;;;9.88;67.64;100907.29;104778;1265;60089;-76
2023/10/09 13:12:41;;;;;;;2.80;1.80;;;;;;;9.89;67.97;100903.25;104771;1265;71629;-77
2023/10/09 13:15:09;;;;;;;3.30;2.30;;;;;;;9.88;67.78;100902.41;104849;1271;65055;-76
2023/10/09 13:17:37;;;;;;;1.10;1.00;;;;;;;9.88;68.46;100901.52;104686;1267;72353;-78
2023/10/09 13:20:16;;;;;;;2.80;1.60;;;;;;;9.88;68.59;100902.55;104872;1270;59747;-79
2023/10/09 13:22:46;;;;;;;1.60;1.00;;;;;;;9.85;70.36;100895.77;104790;1265;59799;-78
2023/10/09 13:25:17;;;;;;;5.00;2.10;;;;;;;9.82;73.46;100893.30;104887;1265;71844;-78
2023/10/09 13:27:50;;;;;;;2.10;1.40;;;;;;;9.80;74.04;100894.63;105018;1265;63871;-74
2023/10/09 13:30:21;;;;;;;5.60;2.40;;;;;;;9.77;75.03;100893.20;104885;1265;71454;-76
2023/10/09 13:32:49;;;;;;;2.40;1.70;;;;;;;9.74;76.53;100892.66;104904;1270;60116;-75
2023/10/09 13:35:27;;;;;;;7.70;2.20;;;;;;;9.71;76.76;100891.38;104763;1266;60085;-75
2023/10/09 13:37:55;;;;;;;3.00;1.10;;;;;;;9.70;77.15;100892.50;104736;1265;74735;-75
2023/10/09 13:40:28;;;;;;;3.50;1.80;;;;;;;9.71;77.30;100894.39;104850;1270;66543;-77
2023/10/09 13:42:59;;;;;;;2.10;0.90;;;;;;;9.69;77.86;100897.30;104734;1271;75048;-78
2023/10/09 13:45:27;;;;;;;3.20;1.60;;;;;;;9.65;77.77;100896.08;104792;1265;59741;-75
2023/10/09 13:47:56;;;;;;;4.30;1.20;;;;;;;9.61;76.81;100894.23;104852;1266;60032;-74
2023/10/09 13:50:28;;;;;;;6.50;1.90;;;;;;;9.55;77.34;100893.30;104896;1265;73666;-77
2023/10/09 13:53:00;;;;;;;2.80;1.50;;;;;;;9.50;79.62;100891.42;105801;1265;62658;-76
2023/10/09 13:55:31;;;;;;;7.50;1.60;;;;;;;9.43;79.36;100891.97;106398;1268;71437;-76
2023/10/09 13:58:00;;;;;;;1.40;1.30;;;;;;;9.36;79.86;100894.45;104925;1266;60196;-76
2023/10/09 14:00:34;;;;;;;1.60;1.30;;;;;;;9.27;80.13;100893.46;104777;1270;59719;-76
2023/10/09 14:03:03;;;;;;;4.50;1.40;;;;;;;9.22;82.51;100893.03;104699;1266;71820;-76
2023/10/09 14:05:33;;;;;;;2.20;1.40;;;;;;;9.19;83.73;100892.16;104806;1265;62614;-76
2023/10/09 14:08:04;;;;;;;7.00;2.40;;;;;;;9.17;83.75;100895.37;104866;1269;72328;-75
2023/10/09 14:10:32;;;;;;;2.50;1.70;;;;;;;9.19;85.87;100890.77;104877;1265;59875;-77
2023/10/09 14:13:00;;;;;;;6.70;2.50;;;;;;;9.22;85.69;100895.31;104883;1268;62348;-77
2023/10/09 14:15:27;;;;;;;2.70;1.80;;;;;;;9.25;86.95;100897.27;104841;1270;72026;-76
2023/10/09 14:17:55;;;;;;;5.70;2.80;;;;;;;9.26;87.41;100901.23;104884;1270;64691;-75
2023/10/09 14:20:30;;;;;;;5.50;2.70;;;;;;;9.27;88.36;100908.85;104850;1266;72014;-75
2023/10/09 14:23:06;;;;;;;4.10;1.90;;;;;;;9.29;89.32;100911.72;104862;1265;59712;-77
2023/10/09 14:25:38;;;;;;;2.80;1.80;;;;;;;9.27;86.41;100911.09;104787;1268;59786;-76
2023/10/09 14:28:09;;;;;;;3.50;2.10;;;;;;;9.24;84.29;100914.77;104788;1270;76381;-77
2023/10/09 14:30:43;;;;;;;1.30;1.10;;;;;;;9.18;84.72;100918.38;104845;1266;64320;-77
2023/10/09 14:33:12;;;;;;;2.10;1.80;;;;;;;9.11;84.47;100919.54;104824;1270;73210;-77
2023/10/09 14:35:40;;;;;;;4.10;2.10;;;;;;;9.08;84.25;100922.17;104835;1265;60983;-76
2023/10/09 14:38:15;;;;;;;5.20;2.10;;;;;;;9.04;85.23;100921.29;104747;1270;59653;-76
2023/10/09 14:40:43;;;;;;;2.90;1.50;;;;;;;9.01;86.02;100923.38;104778;1270;72339;-76
2023/10/09 14:43:21;;;;;;;4.00;1.80;;;;;;;8.97;87.19;100924.30;104822;1266;64177;-77
2023/10/09 14:45:49;;;;;;;5.20;2.10;;;;;;;8.92;88.71;100922.75;108706;1265;70950;-75
2023/10/09 14:48:25;;;;;;;4.40;2.60;;;;;;;8.87;89.19;100922.98;108661;1265;57870;-75
2023/10/09 14:50:53;;;;;;;5.70;3.10;;;;;;;8.83;90.73;100923.20;108713;1265;59692;-75
2023/10/09 14:53:22;;;;;;;6.80;5.10;;;;;;;8.79;91.68;100916.05;108680;1266;73120;-77
2023/10/09 14:55:56;;;;;;;6.50;4.30;;;;;;;8.76;91.26;100916.89;108633;1265;63950;-75
2023/10/09 14:58:28;;;;;;;;;;;;;;;8.73;91.11;100910.78;108657;1267;74971;-77
2023/10/09 15:00:56;;;;;;;5.80;2.70;;;;;;;8.68;90.59;100911.15;108665;1265;59262;-75
2023/10/09 15:03:28;;;;;;;4.20;3.00;;;;;;;8.65;92.25;100915.88;108627;1265;60129;-75
2023/10/09 15:05:55;;;;;;;6.40;4.30;;;;;;;8.59;93.08;100915.42;108690;1265;72368;-77
2023/10/09 15:08:23;;;;;;;10.20;3.60;;;;;;;8.55;92.98;100913.36;108543;1265;64994;-76
2023/10/09 15:10:55;;;;;;;5.20;3.50;;;;;;;8.49;94.29;100907.70;108651;1265;71483;-75
2023/10/09 15:13:28;;;;;;;6.70;3.20;;;;;;;8.44;96.30;100909.18;108644;1265;58056;-76
2023/10/09 15:15:55;;;;;;;7.00;3.50;;;;;;;8.38;97.18;100910.30;108665;1265;58969;-76
2023/10/09 15:18:23;;;;;;;7.60;4.10;;;;;;;8.32;95.61;100912.13;108669;1265;72702;-76
2023/10/09 15:20:51;;;;;;;12.80;7.60;;;;;;;8.26;95.46;100917.77;108619;1265;64219;-76
2023/10/09 15:23:22;;;;;;;13.50;7.90;;;;;;;8.21;94.75;100920.63;108686;1265;72716;-77
2023/10/09 15:25:51;;;;;;;11.90;8.60;;;;;;;8.15;94.33;100924.38;108692;1265;61160;-75
2023/10/09 15:28:22;;;;;;;14.00;6.40;;;;;;;8.10;94.68;100932.27;108725;1265;61103;-78
2023/10/09 15:30:50;;;;;;;10.90;6.90;;;;;;;8.04;94.78;100936.22;108666;1265;73578;-76